Time;durP1;ratioP1;P1;durP2;ratioP2;P2;SDS_P1;SDS_P2;PMS_P1;PMS_P2;Temp;Humidity;BMP_temperature;BMP_pressure;BME280_temperature;BME280_humidity;BME280_pressure;Samples;Min_cycle;Max_cycle;Signal;HPM_P1;HPM_P2
2022/02/01 07:01:18;;;;;;;24.45;3.92;;;;;;;;;;5460385;23;20059;-83
2022/02/01 07:03:45;;;;;;;22.67;3.42;;;;;;;;;;4931207;28;20074;-84
2022/02/01 07:06:12;;;;;;;23.45;2.65;;;;;;;;;;4931009;28;20122;-84
2022/02/01 07:08:42;;;;;;;25.63;3.22;;;;;;;;;;4936450;28;20051;-84
2022/02/01 07:11:14;;;;;;;28.25;3.67;;;;;;;;;;4928454;28;20044;-84
2022/02/01 07:13:41;;;;;;;23.73;3.35;;;;;;;;;;4927908;28;20056;-86
2022/02/01 07:16:09;;;;;;;30.48;3.65;;;;;;;;;;4925119;28;20465;-86
2022/02/01 07:18:36;;;;;;;23.63;3.25;;;;;;;;;;4928901;28;20079;-83
2022/02/01 07:21:03;;;;;;;35.50;3.67;;;;;;;;;;4930499;28;20091;-84
2022/02/01 07:23:31;;;;;;;27.02;3.28;;;;;;;;;;4929840;28;20472;-84
2022/02/01 07:26:02;;;;;;;32.35;3.67;;;;;;;;;;4931669;29;20044;-83
2022/02/01 07:28:30;;;;;;;31.25;4.15;;;;;;;;;;4932570;28;20051;-84
2022/02/01 07:30:59;;;;;;;23.58;3.10;;;;;;;;;;4932765;29;20099;-85
2022/02/01 07:33:26;;;;;;;;;;;;;;;;;;4933301;28;20457;-84
2022/02/01 07:35:55;;;;;;;25.77;3.75;;;;;;;;;;4935573;28;19923;-83
2022/02/01 07:38:23;;;;;;;30.10;3.25;;;;;;;;;;4933215;28;20126;-84
2022/02/01 07:40:55;;;;;;;31.65;3.53;;;;;;;;;;4931016;29;20130;-83
2022/02/01 07:43:24;;;;;;;26.13;3.05;;;;;;;;;;4930921;28;20047;-84
2022/02/01 07:45:52;;;;;;;20.92;3.00;;;;;;;;;;4932210;28;20505;-84
2022/02/01 07:48:18;;;;;;;26.70;3.50;;;;;;;;;;4933874;28;20106;-84
2022/02/01 07:50:45;;;;;;;33.55;4.38;;;;;;;;;;4933895;28;20056;-84
2022/02/01 07:53:12;;;;;;;28.42;3.40;;;;;;;;;;4931707;29;20047;-84
2022/02/01 07:55:39;;;;;;;35.42;3.67;;;;;;;;;;4932520;29;20043;-83
2022/02/01 07:58:06;;;;;;;25.23;2.70;;;;;;;;;;4931946;28;20535;-83
2022/02/01 08:00:33;;;;;;;28.48;3.30;;;;;;;;;;4932175;28;20110;-84
2022/02/01 08:02:59;;;;;;;34.85;3.22;;;;;;;;;;4935620;28;20048;-84
2022/02/01 08:05:30;;;;;;;24.42;2.78;;;;;;;;;;4933950;28;20047;-85
2022/02/01 08:08:04;;;;;;;19.30;3.50;;;;;;;;;;4931522;28;20106;-83
2022/02/01 08:10:39;;;;;;;26.08;3.38;;;;;;;;;;4939361;28;20110;-82
2022/02/01 08:18:51;;;;;;;32.58;5.28;;;;;;;;;;4932326;28;20048;-84
2022/02/01 08:21:44;;;;;;;28.23;5.20;;;;;;;;;;4931442;28;20040;-84
2022/02/01 08:24:11;;;;;;;17.15;3.97;;;;;;;;;;4933702;28;20043;-84
2022/02/01 08:26:38;;;;;;;36.03;5.10;;;;;;;;;;4932677;29;20055;-83
2022/02/01 08:29:05;;;;;;;25.25;3.88;;;;;;;;;;4931970;29;20056;-84
2022/02/01 08:31:44;;;;;;;30.30;3.88;;;;;;;;;;4931374;29;20047;-84
2022/02/01 08:34:11;;;;;;;24.95;3.30;;;;;;;;;;4931098;28;20052;-84
2022/02/01 08:36:38;;;;;;;29.38;3.95;;;;;;;;;;4931371;28;20477;-84
2022/02/01 08:39:04;;;;;;;24.65;3.35;;;;;;;;;;4933904;28;20048;-84
2022/02/01 08:41:31;;;;;;;30.45;3.35;;;;;;;;;;4931971;29;20048;-83
2022/02/01 08:43:59;;;;;;;32.90;3.67;;;;;;;;;;4931135;28;20093;-84
2022/02/01 08:46:26;;;;;;;27.15;3.40;;;;;;;;;;4930565;28;20047;-84
2022/02/01 08:48:53;;;;;;;29.77;4.88;;;;;;;;;;4931771;28;20519;-84
2022/02/01 08:51:23;;;;;;;30.73;5.75;;;;;;;;;;4932295;28;20043;-83
2022/02/01 08:54:00;;;;;;;44.78;11.05;;;;;;;;;;4933470;29;20047;-84
2022/02/01 08:59:30;;;;;;;35.75;7.20;;;;;;;;;;4933594;28;20500;-84
2022/02/01 09:01:57;;;;;;;32.92;5.55;;;;;;;;;;4930807;28;20063;-85
2022/02/01 09:04:24;;;;;;;30.13;5.32;;;;;;;;;;4931893;28;20055;-84
2022/02/01 09:06:50;;;;;;;25.92;4.68;;;;;;;;;;4932599;28;20052;-83
2022/02/01 09:09:17;;;;;;;35.00;6.43;;;;;;;;;;4941699;28;20110;-84
2022/02/01 09:11:45;;;;;;;35.85;8.25;;;;;;;;;;4932112;28;20063;-83
2022/02/01 09:14:11;;;;;;;41.50;8.38;;;;;;;;;;4930620;28;20054;-83
2022/02/01 09:16:38;;;;;;;43.90;11.05;;;;;;;;;;4930920;28;20137;-84
2022/02/01 09:19:05;;;;;;;40.28;9.93;;;;;;;;;;4929953;28;20138;-85
2022/02/01 09:21:32;;;;;;;40.10;9.98;;;;;;;;;;4929380;29;20044;-84
2022/02/01 09:23:58;;;;;;;37.78;5.05;;;;;;;;;;4933878;28;20055;-84
2022/02/01 09:26:26;;;;;;;34.35;5.00;;;;;;;;;;4930332;29;20047;-84
2022/02/01 09:29:12;;;;;;;36.30;5.97;;;;;;;;;;4930180;28;20051;-83
2022/02/01 09:31:39;;;;;;;33.45;6.75;;;;;;;;;;4931133;28;20058;-85
2022/02/01 09:34:07;;;;;;;25.92;5.57;;;;;;;;;;4930638;28;20051;-83
2022/02/01 09:36:33;;;;;;;38.95;6.38;;;;;;;;;;4932221;28;20047;-85
2022/02/01 09:39:01;;;;;;;34.58;5.20;;;;;;;;;;4933237;29;20520;-85
2022/02/01 09:41:29;;;;;;;31.13;8.10;;;;;;;;;;4931780;28;20044;-84
2022/02/01 09:43:56;;;;;;;39.35;9.93;;;;;;;;;;4930197;29;20083;-83
2022/02/01 09:46:24;;;;;;;36.45;8.65;;;;;;;;;;4929216;28;20048;-84
2022/02/01 09:48:51;;;;;;;41.42;8.43;;;;;;;;;;4930193;29;20054;-85
2022/02/01 09:51:18;;;;;;;33.00;7.15;;;;;;;;;;4931570;28;20051;-84
2022/02/01 09:54:01;;;;;;;42.35;10.07;;;;;;;;;;4929776;28;20492;-84
2022/02/01 09:56:30;;;;;;;53.70;12.55;;;;;;;;;;4931262;28;20103;-84
2022/02/01 09:58:57;;;;;;;34.03;10.00;;;;;;;;;;4930155;28;20067;-84
2022/02/01 10:01:27;;;;;;;32.33;7.40;;;;;;;;;;4929362;28;20052;-84
2022/02/01 10:04:01;;;;;;;30.73;6.82;;;;;;;;;;4929740;29;20051;-84
2022/02/01 10:06:41;;;;;;;32.17;4.85;;;;;;;;;;4916383;29;20123;-83
2022/02/01 10:09:28;;;;;;;22.52;3.65;;;;;;;;;;4938828;28;20123;-84
2022/02/01 10:11:55;;;;;;;24.00;3.30;;;;;;;;;;4932774;28;20583;-85
2022/02/01 10:14:31;;;;;;;20.70;3.35;;;;;;;;;;4928374;28;20052;-84
2022/02/01 10:17:00;;;;;;;23.45;2.83;;;;;;;;;;4929586;28;20115;-84
2022/02/01 10:19:27;;;;;;;23.27;2.88;;;;;;;;;;4929589;28;20043;-85
2022/02/01 10:21:55;;;;;;;17.60;2.58;;;;;;;;;;4929670;29;20048;-82
2022/02/01 10:24:41;;;;;;;21.48;2.67;;;;;;;;;;4930955;28;20106;-84
2022/02/01 10:27:15;;;;;;;18.67;3.25;;;;;;;;;;4929478;28;20070;-84
2022/02/01 10:30:07;;;;;;;25.80;3.25;;;;;;;;;;4918112;28;20811;-85
2022/02/01 10:35:24;;;;;;;28.02;4.30;;;;;;;;;;4929899;28;20540;-84
2022/02/01 10:38:01;;;;;;;34.53;3.58;;;;;;;;;;4929165;28;20107;-85
2022/02/01 10:40:40;;;;;;;25.83;3.35;;;;;;;;;;4929116;28;20571;-85
2022/02/01 10:43:27;;;;;;;29.40;3.67;;;;;;;;;;4929646;28;20043;-85
2022/02/01 10:46:07;;;;;;;19.65;3.90;;;;;;;;;;4929528;29;20077;-84
2022/02/01 10:48:34;;;;;;;20.40;2.85;;;;;;;;;;4914877;28;20051;-82
2022/02/01 10:51:07;;;;;;;19.58;3.08;;;;;;;;;;4932558;28;20428;-83
2022/02/01 10:53:35;;;;;;;29.05;3.65;;;;;;;;;;4931660;28;20085;-83
2022/02/01 10:56:14;;;;;;;16.03;2.60;;;;;;;;;;4929112;28;20051;-85
2022/02/01 10:58:41;;;;;;;;;;;;;;;;;;4930610;29;20051;-84
2022/02/01 11:01:10;;;;;;;19.92;2.92;;;;;;;;;;4932257;28;19931;-85
2022/02/01 11:03:45;;;;;;;29.35;4.60;;;;;;;;;;4933334;29;20084;-84
2022/02/01 11:06:13;;;;;;;22.35;2.92;;;;;;;;;;4934970;28;20050;-84
2022/02/01 11:08:42;;;;;;;20.13;3.35;;;;;;;;;;4939010;29;20138;-84
2022/02/01 11:11:21;;;;;;;29.85;3.10;;;;;;;;;;4934783;28;20457;-83
2022/02/01 11:13:49;;;;;;;21.50;3.30;;;;;;;;;;4932744;28;20099;-85
2022/02/01 11:16:26;;;;;;;23.20;2.95;;;;;;;;;;4932334;28;20043;-84
2022/02/01 11:19:07;;;;;;;21.00;2.92;;;;;;;;;;4935072;28;20055;-84
2022/02/01 11:21:45;;;;;;;25.23;2.80;;;;;;;;;;4917869;29;20095;-84
2022/02/01 11:24:33;;;;;;;16.73;3.17;;;;;;;;;;4934487;28;20052;-84
2022/02/01 11:27:18;;;;;;;24.95;3.10;;;;;;;;;;4932369;28;20111;-83
2022/02/01 11:32:36;;;;;;;22.25;2.60;;;;;;;;;;4934734;28;20052;-85
2022/02/01 11:35:12;;;;;;;31.92;3.38;;;;;;;;;;4932816;28;20138;-85
2022/02/01 11:38:03;;;;;;;17.08;2.67;;;;;;;;;;4933412;28;20189;-85
2022/02/01 11:40:41;;;;;;;30.35;2.60;;;;;;;;;;4932625;28;20102;-85
2022/02/01 11:43:28;;;;;;;23.95;2.80;;;;;;;;;;4934241;28;20512;-88
2022/02/01 11:46:04;;;;;;;23.77;2.28;;;;;;;;;;4935293;28;20126;-86
2022/02/01 11:48:33;;;;;;;18.45;2.72;;;;;;;;;;4921610;29;20588;-89
2022/02/01 11:51:12;;;;;;;19.77;2.38;;;;;;;;;;4930331;28;20055;-89
2022/02/01 11:54:00;;;;;;;15.63;2.38;;;;;;;;;;4927894;28;20176;-88
2022/02/01 11:56:43;;;;;;;18.00;2.40;;;;;;;;;;4929324;28;20166;-85
2022/02/01 11:59:14;;;;;;;23.25;3.28;;;;;;;;;;4934254;28;20579;-88
2022/02/01 12:01:42;;;;;;;24.52;3.22;;;;;;;;;;4928833;28;20059;-88
2022/02/01 12:04:16;;;;;;;18.35;2.42;;;;;;;;;;4929262;28;20424;-84
2022/02/01 12:06:48;;;;;;;22.30;2.60;;;;;;;;;;4931083;28;20560;-87
2022/02/01 12:09:21;;;;;;;14.70;2.38;;;;;;;;;;4934734;28;20058;-84
2022/02/01 12:11:55;;;;;;;20.33;2.50;;;;;;;;;;4929642;28;20075;-87
2022/02/01 12:14:22;;;;;;;19.88;3.08;;;;;;;;;;4928563;28;20063;-87
2022/02/01 12:16:51;;;;;;;21.13;2.95;;;;;;;;;;4928696;29;20055;-84
2022/02/01 12:19:39;;;;;;;18.65;2.30;;;;;;;;;;4928978;28;20039;-85
2022/02/01 12:22:32;;;;;;;15.88;2.63;;;;;;;;;;4929975;28;20118;-83
2022/02/01 12:25:08;;;;;;;16.58;2.65;;;;;;;;;;4934191;29;20048;-83
2022/02/01 12:27:36;;;;;;;21.05;2.45;;;;;;;;;;4916879;28;20118;-82
2022/02/01 12:30:06;;;;;;;19.73;2.83;;;;;;;;;;4934391;28;20114;-87
2022/02/01 12:32:34;;;;;;;25.98;3.38;;;;;;;;;;4931926;29;20110;-83
2022/02/01 12:35:03;;;;;;;19.03;3.10;;;;;;;;;;4931577;28;20083;-84
2022/02/01 12:37:31;;;;;;;20.92;2.65;;;;;;;;;;4929120;29;20047;-83
2022/02/01 12:40:03;;;;;;;21.90;4.00;;;;;;;;;;4931434;28;20047;-83
2022/02/01 12:42:50;;;;;;;25.38;2.70;;;;;;;;;;4930994;28;20044;-82
2022/02/01 12:48:05;;;;;;;17.88;3.15;;;;;;;;;;4915070;29;20082;-83
2022/02/01 12:50:32;;;;;;;25.30;2.88;;;;;;;;;;4932680;29;20043;-84
2022/02/01 12:53:01;;;;;;;23.52;2.55;;;;;;;;;;4930875;28;20052;-84
2022/02/01 12:55:28;;;;;;;22.90;3.42;;;;;;;;;;4930731;28;20095;-84
2022/02/01 12:58:14;;;;;;;25.00;3.72;;;;;;;;;;4930624;28;20045;-83
2022/02/01 13:00:50;;;;;;;29.15;3.47;;;;;;;;;;4929609;29;20056;-84
2022/02/01 13:03:17;;;;;;;26.05;2.95;;;;;;;;;;4932909;28;20485;-84
2022/02/01 13:05:44;;;;;;;27.88;3.38;;;;;;;;;;4932101;28;20059;-83
2022/02/01 13:14:38;;;;;;;19.27;2.90;;;;;;;;;;4888996;29;20078;-84
2022/02/01 13:17:01;;;;;;;21.80;3.33;;;;;;;;;;4883751;29;20057;-83
2022/02/01 13:22:34;;;;;;;27.85;3.30;;;;;;;;;;4882558;29;20132;-84
2022/02/01 13:25:08;;;;;;;25.27;2.97;;;;;;;;;;4881842;29;20060;-85
2022/02/01 13:27:35;;;;;;;30.73;4.57;;;;;;;;;;4878837;29;20045;-83
2022/02/01 13:30:07;;;;;;;29.27;3.95;;;;;;;;;;4878825;29;20109;-83
2022/02/01 13:32:39;;;;;;;30.65;4.22;;;;;;;;;;4881481;29;20044;-83
2022/02/01 13:35:20;;;;;;;31.63;3.97;;;;;;;;;;4881723;29;20422;-85
2022/02/01 13:37:48;;;;;;;25.92;3.42;;;;;;;;;;4882095;29;20052;-84
2022/02/01 13:40:27;;;;;;;34.03;4.25;;;;;;;;;;4881823;29;20100;-84
2022/02/01 13:42:55;;;;;;;32.83;4.03;;;;;;;;;;4882028;29;20053;-84
2022/02/01 13:45:33;;;;;;;29.23;3.40;;;;;;;;;;4878148;29;20049;-83
2022/02/01 13:47:59;;;;;;;36.65;4.38;;;;;;;;;;4899634;29;20056;-84
2022/02/01 13:50:35;;;;;;;41.30;5.10;;;;;;;;;;4931619;28;20051;-86
2022/02/01 13:53:04;;;;;;;38.10;4.50;;;;;;;;;;4930531;28;20055;-84
2022/02/01 13:55:35;;;;;;;39.83;5.07;;;;;;;;;;4929534;28;20469;-84
2022/02/01 13:58:07;;;;;;;37.83;4.50;;;;;;;;;;4929734;28;20051;-84
2022/02/01 14:00:36;;;;;;;40.65;5.78;;;;;;;;;;4916472;28;20052;-85
2022/02/01 14:03:18;;;;;;;43.60;6.05;;;;;;;;;;4932889;28;20193;-84
2022/02/01 14:06:39;;;;;;;35.72;5.72;;;;;;;;;;4930926;28;20103;-85
2022/02/01 14:12:38;;;;;;;36.72;5.47;;;;;;;;;;4891969;29;20472;-84
2022/02/01 14:16:09;;;;;;;33.58;4.63;;;;;;;;;;4889241;29;20056;-84
2022/02/01 14:36:21;;;;;;;;;;;;;;;;;;4892506;29;20112;-85
2022/02/01 14:46:46;;;;;;;44.85;7.03;;;;;;;;;;4923817;28;20047;-84
2022/02/01 14:49:12;;;;;;;48.25;7.90;;;;;;;;;;4929977;28;20102;-85
2022/02/01 14:51:39;;;;;;;53.17;7.80;;;;;;;;;;4929413;29;20048;-85
2022/02/01 14:54:07;;;;;;;44.42;7.22;;;;;;;;;;4931356;28;20063;-84
2022/02/01 14:56:36;;;;;;;44.97;6.60;;;;;;;;;;4930196;28;20052;-85
2022/02/01 15:07:13;;;;;;;27.50;5.13;;;;;;;;;;4929066;28;20055;-84
2022/02/01 15:12:43;;;;;;;21.73;2.97;;;;;;;;;;4929795;28;20492;-84
2022/02/01 15:15:10;;;;;;;19.77;3.00;;;;;;;;;;4928573;28;20055;-84
2022/02/01 15:17:37;;;;;;;25.95;2.35;;;;;;;;;;4930310;29;20052;-85
2022/02/01 15:20:06;;;;;;;16.02;2.47;;;;;;;;;;4931047;28;20044;-84
2022/02/01 15:22:33;;;;;;;;;;;;;;;;;;4928247;29;20051;-84
2022/02/01 15:25:01;;;;;;;16.10;2.85;;;;;;;;;;4929254;29;20343;-83
2022/02/01 15:27:27;;;;;;;17.25;2.60;;;;;;;;;;4929535;28;20194;-85
2022/02/01 15:29:54;;;;;;;20.02;4.15;;;;;;;;;;4931035;28;20103;-84
2022/02/01 15:32:21;;;;;;;25.88;4.82;;;;;;;;;;4928365;28;20107;-83
2022/02/01 15:35:01;;;;;;;25.15;3.63;;;;;;;;;;4928879;28;20056;-84
2022/02/01 15:37:32;;;;;;;25.30;5.05;;;;;;;;;;4928277;28;20099;-84
2022/02/01 15:54:32;;;;;;;21.67;2.60;;;;;;;;;;4934937;28;20075;-84
2022/02/01 15:59:28;;;;;;;23.63;3.20;;;;;;;;;;4933776;28;20051;-83
2022/02/01 16:02:13;;;;;;;19.30;3.80;;;;;;;;;;4931842;28;20142;-84
2022/02/01 16:04:43;;;;;;;23.98;5.28;;;;;;;;;;4931906;28;20048;-84
2022/02/01 16:07:15;;;;;;;23.05;4.50;;;;;;;;;;4931618;28;20103;-83
2022/02/01 16:11:06;;;;;;;19.70;5.72;;;;;;;;;;4941120;28;20147;-84
2022/02/01 16:13:05;;;;;;;22.52;6.68;;;;;;;;;;4907830;29;20512;-83
2022/02/01 16:15:32;;;;;;;24.08;7.22;;;;;;;;;;4917650;28;20052;-84
2022/02/01 16:17:58;;;;;;;20.48;5.60;;;;;;;;;;4933802;29;20509;-83
2022/02/01 16:20:25;;;;;;;25.50;5.72;;;;;;;;;;4931027;28;20496;-82
2022/02/01 16:22:52;;;;;;;16.92;5.53;;;;;;;;;;4927922;28;20135;-82
2022/02/01 16:25:18;;;;;;;18.27;2.92;;;;;;;;;;4924207;28;20103;-83
2022/02/01 16:27:45;;;;;;;13.80;2.50;;;;;;;;;;4924090;28;20055;-83
2022/02/01 16:30:22;;;;;;;19.55;2.40;;;;;;;;;;4924409;28;20040;-85
2022/02/01 16:32:49;;;;;;;15.40;1.67;;;;;;;;;;4924058;28;20580;-85
2022/02/01 16:35:16;;;;;;;15.93;1.70;;;;;;;;;;4924341;28;20100;-84
2022/02/01 16:37:42;;;;;;;10.27;1.33;;;;;;;;;;4925981;28;20051;-86
2022/02/01 16:40:11;;;;;;;15.07;1.70;;;;;;;;;;4922784;28;20092;-86
2022/02/01 16:42:43;;;;;;;13.23;2.50;;;;;;;;;;4924220;28;20544;-84
2022/02/01 16:45:18;;;;;;;16.30;1.90;;;;;;;;;;4924223;28;20044;-85
2022/02/01 16:47:58;;;;;;;14.68;2.90;;;;;;;;;;4923852;28;20048;-83
2022/02/01 16:50:26;;;;;;;19.50;3.60;;;;;;;;;;4925390;28;20051;-84
2022/02/01 16:53:00;;;;;;;21.45;4.75;;;;;;;;;;4924164;28;20052;-84
2022/02/01 16:56:01;;;;;;;21.05;5.30;;;;;;;;;;4924326;28;20086;-84
2022/02/01 17:00:50;;;;;;;29.40;6.93;;;;;;;;;;4923178;28;20043;-84
2022/02/01 17:03:18;;;;;;;32.23;6.10;;;;;;;;;;4922905;28;20054;-86
2022/02/01 17:05:47;;;;;;;23.70;5.32;;;;;;;;;;4923235;28;20078;-84
2022/02/01 17:08:15;;;;;;;31.43;7.40;;;;;;;;;;4928652;28;20095;-86
2022/02/01 17:10:47;;;;;;;44.37;15.10;;;;;;;;;;4924992;28;20079;-86
2022/02/01 17:13:22;;;;;;;45.75;14.23;;;;;;;;;;4923918;28;20469;-83
2022/02/01 17:18:36;;;;;;;43.72;16.38;;;;;;;;;;4923598;28;20045;-84
2022/02/01 17:23:49;;;;;;;40.78;12.60;;;;;;;;;;4923244;28;20424;-85
2022/02/01 17:26:16;;;;;;;44.05;12.50;;;;;;;;;;4923915;28;20462;-86
2022/02/01 17:28:43;;;;;;;28.92;8.15;;;;;;;;;;4923017;29;20516;-83
2022/02/01 17:31:10;;;;;;;25.45;8.80;;;;;;;;;;4921649;28;20039;-83
2022/02/01 17:33:37;;;;;;;19.58;6.68;;;;;;;;;;4923889;29;20051;-83
2022/02/01 17:36:06;;;;;;;21.42;5.97;;;;;;;;;;4922546;28;20079;-85
2022/02/01 17:38:57;;;;;;;18.27;5.38;;;;;;;;;;4920299;29;20127;-85
2022/02/01 17:41:30;;;;;;;18.38;5.18;;;;;;;;;;4925566;28;20058;-85
2022/02/01 17:43:58;;;;;;;19.35;4.38;;;;;;;;;;4927266;28;20044;-82
2022/02/01 17:46:27;;;;;;;19.27;4.43;;;;;;;;;;4923349;28;20058;-84
2022/02/01 17:48:54;;;;;;;29.17;8.80;;;;;;;;;;4924900;28;20095;-84
2022/02/01 17:51:29;;;;;;;15.98;3.83;;;;;;;;;;4923355;28;20406;-84
2022/02/01 17:54:19;;;;;;;24.70;5.85;;;;;;;;;;4915819;29;20052;-88
2022/02/01 17:56:46;;;;;;;27.63;11.98;;;;;;;;;;4933435;28;20047;-87
2022/02/01 17:59:13;;;;;;;36.58;16.98;;;;;;;;;;4933148;28;20047;-86
2022/02/01 18:01:40;;;;;;;31.48;9.73;;;;;;;;;;4929824;29;20425;-86
2022/02/01 18:04:07;;;;;;;21.27;6.28;;;;;;;;;;4924858;28;20044;-88
2022/02/01 18:06:34;;;;;;;18.52;4.93;;;;;;;;;;4930095;28;20063;-86
2022/02/01 18:09:01;;;;;;;24.77;7.45;;;;;;;;;;4933404;29;20461;-85
2022/02/01 18:11:48;;;;;;;22.85;7.95;;;;;;;;;;4931195;28;20050;-86
2022/02/01 18:14:24;;;;;;;15.82;4.70;;;;;;;;;;4925139;28;20058;-88
2022/02/01 18:16:52;;;;;;;18.15;4.78;;;;;;;;;;4926650;28;20052;-85
2022/02/01 18:19:20;;;;;;;17.67;4.82;;;;;;;;;;4925002;28;20461;-85
2022/02/01 18:21:58;;;;;;;25.38;5.35;;;;;;;;;;4925352;28;20067;-86
2022/02/01 18:24:26;;;;;;;20.42;5.28;;;;;;;;;;4922887;28;20058;-85
2022/02/01 18:26:53;;;;;;;20.92;4.82;;;;;;;;;;4928361;28;20043;-86
2022/02/01 18:29:23;;;;;;;15.85;3.03;;;;;;;;;;4925088;28;20400;-83
2022/02/01 18:31:50;;;;;;;19.45;3.05;;;;;;;;;;4921134;28;20063;-85
2022/02/01 18:34:38;;;;;;;11.40;3.22;;;;;;;;;;4925334;28;20055;-88
2022/02/01 18:37:08;;;;;;;15.50;2.90;;;;;;;;;;4911909;29;20048;-85
2022/02/01 18:39:50;;;;;;;18.70;3.80;;;;;;;;;;4915519;29;20052;-87
2022/02/01 18:42:25;;;;;;;15.52;3.55;;;;;;;;;;4923954;28;20040;-88
2022/02/01 18:44:55;;;;;;;15.75;4.60;;;;;;;;;;4923910;28;20055;-85
2022/02/01 18:47:26;;;;;;;15.27;3.97;;;;;;;;;;4927112;28;20058;-87
2022/02/01 18:50:13;;;;;;;17.83;4.18;;;;;;;;;;4926535;28;20058;-87
2022/02/01 18:58:05;;;;;;;16.83;5.68;;;;;;;;;;4930037;28;20303;-87
2022/02/01 19:06:15;;;;;;;23.08;5.95;;;;;;;;;;4925460;28;20063;-87
2022/02/01 19:09:20;;;;;;;25.88;6.78;;;;;;;;;;4929070;28;20087;-86
2022/02/01 19:11:46;;;;;;;24.52;6.70;;;;;;;;;;4927470;28;20052;-88
2022/02/01 19:14:18;;;;;;;21.05;9.05;;;;;;;;;;4926598;28;20059;-87
2022/02/01 19:16:48;;;;;;;72.80;27.98;;;;;;;;;;4924039;28;20158;-87
2022/02/01 19:19:16;;;;;;;65.35;26.20;;;;;;;;;;4926552;28;20051;-85
2022/02/01 19:21:43;;;;;;;48.50;17.30;;;;;;;;;;4929351;29;20107;-86
2022/02/01 19:24:12;;;;;;;23.27;7.85;;;;;;;;;;4933502;28;20515;-87
2022/02/01 19:26:42;;;;;;;31.27;11.52;;;;;;;;;;4930020;29;20052;-84
2022/02/01 19:29:22;;;;;;;27.38;11.98;;;;;;;;;;4930333;28;20047;-85
2022/02/01 19:31:51;;;;;;;23.75;7.45;;;;;;;;;;4930063;28;20060;-85
2022/02/01 19:34:21;;;;;;;41.88;17.38;;;;;;;;;;4931899;28;20051;-84
2022/02/01 19:36:49;;;;;;;15.77;6.90;;;;;;;;;;4930122;28;20060;-84
2022/02/01 19:39:22;;;;;;;26.58;7.75;;;;;;;;;;4933991;28;20500;-85
2022/02/01 19:41:51;;;;;;;11.93;4.00;;;;;;;;;;4911512;28;20123;-84
2022/02/01 19:44:26;;;;;;;7.40;3.05;;;;;;;;;;4925089;28;20048;-84
2022/02/01 19:47:01;;;;;;;9.55;3.00;;;;;;;;;;4928853;28;20047;-83
2022/02/01 19:49:28;;;;;;;16.73;4.80;;;;;;;;;;4928343;28;20424;-83
2022/02/01 19:51:55;;;;;;;11.05;3.00;;;;;;;;;;4927913;28;20043;-85
2022/02/01 19:54:22;;;;;;;10.88;3.70;;;;;;;;;;4919238;29;20079;-85
2022/02/01 19:56:50;;;;;;;8.38;2.13;;;;;;;;;;4931068;28;20058;-86
2022/02/01 19:59:23;;;;;;;9.20;3.20;;;;;;;;;;4929885;28;20502;-84
2022/02/01 20:01:54;;;;;;;8.13;2.50;;;;;;;;;;4927270;28;20047;-85
2022/02/01 20:04:22;;;;;;;9.35;3.95;;;;;;;;;;4930644;28;20047;-85
2022/02/01 20:06:52;;;;;;;9.30;3.28;;;;;;;;;;4929882;29;20051;-83
2022/02/01 20:09:32;;;;;;;7.63;2.45;;;;;;;;;;4930597;28;20409;-86
2022/02/01 20:12:04;;;;;;;25.35;13.40;;;;;;;;;;4931059;28;20047;-85
2022/02/01 20:14:37;;;;;;;23.42;9.38;;;;;;;;;;4930215;28;20113;-86
2022/02/01 20:17:05;;;;;;;46.95;16.20;;;;;;;;;;4923093;28;20536;-86
2022/02/01 20:19:32;;;;;;;50.45;20.27;;;;;;;;;;4928182;28;20076;-86
2022/02/01 20:21:59;;;;;;;27.85;11.88;;;;;;;;;;4920543;29;20107;-83
2022/02/01 20:24:31;;;;;;;23.30;9.70;;;;;;;;;;4925989;28;20509;-86
2022/02/01 20:26:57;;;;;;;7.25;1.88;;;;;;;;;;4926834;29;20071;-88
2022/02/01 20:29:24;;;;;;;15.02;7.75;;;;;;;;;;4927282;28;20059;-85
2022/02/01 20:31:51;;;;;;;15.95;7.60;;;;;;;;;;4939076;28;20056;-84
2022/02/01 20:34:19;;;;;;;10.88;4.50;;;;;;;;;;4917475;29;20084;-87
2022/02/01 20:36:51;;;;;;;14.70;8.52;;;;;;;;;;4916495;29;20052;-86
2022/02/01 20:39:23;;;;;;;11.60;5.53;;;;;;;;;;4920550;28;20047;-88
2022/02/01 20:41:53;;;;;;;11.25;5.47;;;;;;;;;;4920759;28;20043;-86
2022/02/01 20:44:20;;;;;;;14.18;5.07;;;;;;;;;;4920429;28;20052;-87
2022/02/01 20:46:47;;;;;;;13.00;7.10;;;;;;;;;;4914066;28;20135;-85
2022/02/01 20:49:15;;;;;;;8.10;4.05;;;;;;;;;;4917103;29;20047;-88
2022/02/01 20:51:47;;;;;;;16.52;9.50;;;;;;;;;;4912544;29;20055;-88
2022/02/01 20:54:18;;;;;;;10.73;5.40;;;;;;;;;;4916188;28;20509;-88
2022/02/01 20:56:46;;;;;;;8.52;3.58;;;;;;;;;;4920566;29;20480;-87
2022/02/01 20:59:13;;;;;;;8.40;4.05;;;;;;;;;;4914634;29;20051;-87
2022/02/01 21:01:41;;;;;;;6.50;2.50;;;;;;;;;;4920563;28;20075;-87
2022/02/01 21:04:09;;;;;;;11.88;5.45;;;;;;;;;;4910234;29;20051;-84
2022/02/01 21:06:36;;;;;;;9.73;4.80;;;;;;;;;;4912942;29;20066;-84
2022/02/01 21:09:04;;;;;;;8.48;4.28;;;;;;;;;;4916274;29;20044;-86
2022/02/01 21:11:46;;;;;;;11.18;4.20;;;;;;;;;;4914537;29;20512;-87
2022/02/01 21:14:13;;;;;;;6.35;2.45;;;;;;;;;;4919522;29;20047;-85
2022/02/01 21:16:39;;;;;;;7.72;2.65;;;;;;;;;;4917490;29;20692;-87
2022/02/01 21:19:06;;;;;;;7.10;3.17;;;;;;;;;;4912337;29;20094;-86
2022/02/01 21:21:33;;;;;;;4.25;1.42;;;;;;;;;;4918726;29;20066;-87
2022/02/01 21:24:00;;;;;;;7.30;3.03;;;;;;;;;;4922115;29;20451;-86
2022/02/01 21:26:44;;;;;;;2.55;1.05;;;;;;;;;;4919279;29;20059;-86
2022/02/01 21:29:14;;;;;;;6.80;1.48;;;;;;;;;;4921676;29;20822;-85
2022/02/01 21:31:41;;;;;;;6.03;2.25;;;;;;;;;;4919428;28;20044;-88
2022/02/01 21:34:08;;;;;;;3.72;1.35;;;;;;;;;;4916651;29;20047;-85
2022/02/01 21:36:37;;;;;;;4.80;1.80;;;;;;;;;;4918867;29;21015;-86
2022/02/01 21:39:05;;;;;;;3.95;1.10;;;;;;;;;;4916745;29;20040;-86
2022/02/01 21:41:33;;;;;;;10.93;3.03;;;;;;;;;;4920430;29;20052;-85
2022/02/01 21:44:00;;;;;;;11.55;8.30;;;;;;;;;;4921661;29;20127;-87
2022/02/01 21:46:27;;;;;;;4.53;1.92;;;;;;;;;;4913770;29;20080;-87
2022/02/01 21:48:55;;;;;;;4.05;1.75;;;;;;;;;;4917642;29;20576;-88
2022/02/01 21:51:22;;;;;;;6.47;2.63;;;;;;;;;;4914218;28;20040;-89
2022/02/01 21:53:52;;;;;;;4.63;1.70;;;;;;;;;;4921747;28;20052;-88
2022/02/01 21:56:24;;;;;;;5.65;2.15;;;;;;;;;;4918976;29;20060;-88
2022/02/01 21:58:51;;;;;;;4.93;2.50;;;;;;;;;;4915520;28;20056;-86
2022/02/01 22:01:21;;;;;;;5.43;2.40;;;;;;;;;;4917802;28;20051;-87
2022/02/01 22:03:48;;;;;;;3.90;1.55;;;;;;;;;;4914216;29;20135;-87
2022/02/01 22:06:16;;;;;;;3.05;1.88;;;;;;;;;;4926025;28;20044;-88
2022/02/01 22:08:43;;;;;;;4.22;2.08;;;;;;;;;;4928282;29;20059;-87
2022/02/01 22:11:10;;;;;;;5.18;1.67;;;;;;;;;;4925681;28;20087;-84
2022/02/01 22:13:36;;;;;;;6.25;2.70;;;;;;;;;;4929611;28;20052;-84
2022/02/01 22:16:03;;;;;;;2.53;1.05;;;;;;;;;;4930955;28;20568;-84
2022/02/01 22:18:30;;;;;;;4.50;1.92;;;;;;;;;;4922945;28;20052;-83
2022/02/01 22:21:03;;;;;;;2.28;1.20;;;;;;;;;;4931234;28;20043;-83
2022/02/01 22:23:31;;;;;;;5.90;2.95;;;;;;;;;;4926226;28;20054;-87
2022/02/01 22:25:59;;;;;;;3.25;1.27;;;;;;;;;;4927772;28;20469;-88
2022/02/01 22:28:27;;;;;;;5.55;1.92;;;;;;;;;;4930801;28;20102;-87
2022/02/01 22:30:56;;;;;;;5.18;1.50;;;;;;;;;;4931016;28;20059;-86
2022/02/01 22:33:22;;;;;;;5.23;1.60;;;;;;;;;;4928544;28;20143;-86
2022/02/01 22:35:50;;;;;;;6.35;1.30;;;;;;;;;;4929956;29;20107;-87
2022/02/01 22:38:19;;;;;;;7.18;1.35;;;;;;;;;;4928025;28;20047;-85
2022/02/01 22:40:46;;;;;;;3.05;1.27;;;;;;;;;;4928582;28;20152;-86
2022/02/01 22:43:12;;;;;;;6.70;1.75;;;;;;;;;;4929252;28;20039;-85
2022/02/01 22:45:39;;;;;;;7.03;1.40;;;;;;;;;;4928922;28;20056;-85
2022/02/01 22:48:06;;;;;;;2.50;1.00;;;;;;;;;;4930137;28;20516;-86
2022/02/01 22:50:33;;;;;;;12.07;6.50;;;;;;;;;;4929742;28;20052;-86
2022/02/01 22:53:00;;;;;;;3.83;1.38;;;;;;;;;;4930128;28;20056;-85
2022/02/01 22:55:27;;;;;;;4.10;1.60;;;;;;;;;;4928321;28;20048;-86
2022/02/01 22:57:54;;;;;;;2.35;0.68;;;;;;;;;;4934312;28;20059;-85
